createdAt,value
2018-08-25T01:00:28.651Z,57.46
2018-08-25T01:01:28.598Z,58.07
2018-08-25T01:02:28.595Z,58.27
2018-08-25T01:03:28.578Z,58.17
2018-08-25T01:04:28.566Z,58.54
2018-08-25T01:05:28.598Z,58.47
2018-08-25T01:06:28.548Z,57.67
2018-08-25T01:07:28.533Z,58.07
2018-08-25T01:08:28.522Z,58.37
2018-08-25T01:09:28.512Z,58.75
2018-08-25T01:10:28.547Z,58.78
2018-08-25T01:11:28.488Z,58.58
2018-08-25T01:12:28.483Z,58.37
2018-08-25T01:13:28.471Z,58.58
2018-08-25T01:14:28.455Z,58.17
2018-08-25T01:15:28.510Z,58.67
2018-08-25T01:16:28.431Z,58.07
2018-08-25T01:17:28.424Z,58.27
2018-08-25T01:18:28.416Z,58.30
2018-08-25T01:19:28.400Z,58.37
2018-08-25T01:20:28.440Z,58.40
2018-08-25T01:21:28.378Z,58.30
2018-08-25T01:22:28.367Z,59.31
2018-08-25T01:23:28.360Z,58.20
2018-08-25T01:24:28.392Z,58.40
2018-08-25T01:25:28.383Z,58.50
2018-08-25T01:26:28.326Z,58.27
2018-08-25T01:27:28.318Z,58.07
2018-08-25T01:28:28.301Z,58.17
2018-08-25T01:29:28.296Z,58.58
2018-08-25T01:30:28.321Z,58.09
2018-08-25T01:31:28.269Z,56.85
2018-08-25T01:32:28.259Z,57.16
2018-08-25T01:33:28.278Z,57.16
2018-08-25T01:34:28.237Z,57.09
2018-08-25T01:35:28.271Z,57.18
2018-08-25T01:36:28.211Z,57.29
2018-08-25T01:37:28.201Z,57.29
2018-08-25T01:38:28.190Z,57.09
2018-08-25T01:39:28.179Z,57.18
2018-08-25T01:40:28.219Z,57.89
2018-08-25T01:41:28.154Z,57.18
2018-08-25T01:42:28.143Z,57.09
2018-08-25T01:43:28.139Z,58.12
2018-08-25T01:44:28.130Z,57.92
2018-08-25T01:45:28.166Z,58.73
2018-08-25T01:46:28.105Z,58.63
2018-08-25T01:47:28.102Z,58.63
2018-08-25T01:48:28.082Z,58.80
2018-08-25T01:49:28.067Z,58.83
2018-08-25T01:50:28.106Z,59.03
2018-08-25T01:51:28.047Z,58.93
2018-08-25T01:52:28.036Z,59.27
2018-08-25T01:53:28.028Z,59.27
2018-08-25T01:54:28.015Z,59.14
2018-08-25T01:55:28.060Z,59.16
2018-08-25T01:56:27.992Z,59.27
2018-08-25T01:57:27.990Z,59.23
2018-08-25T01:58:27.976Z,59.34
2018-08-25T01:59:27.965Z,59.14
2018-08-25T02:00:27.944Z,59.34
2018-08-25T02:01:27.980Z,58.93
2018-08-25T02:02:27.926Z,59.06
2018-08-25T02:03:27.914Z,59.74
2018-08-25T02:04:27.909Z,59.84
2018-08-25T02:05:27.893Z,58.86
2018-08-25T02:06:27.925Z,60.78
2018-08-25T02:07:27.872Z,59.84
2018-08-25T02:08:27.861Z,59.87
2018-08-25T02:09:27.848Z,59.74
2018-08-25T02:10:27.842Z,59.44
2018-08-25T02:11:27.870Z,59.03
2018-08-25T02:12:27.810Z,59.14
2018-08-25T02:13:27.810Z,58.93
2018-08-25T02:14:27.789Z,59.23
2018-08-25T02:15:27.784Z,59.06
2018-08-25T02:16:27.812Z,59.67
2018-08-25T02:17:27.757Z,58.56
2018-08-25T02:18:27.752Z,59.56
2018-08-25T02:19:27.741Z,59.16
2018-08-25T02:20:27.727Z,59.34
2018-08-25T02:21:27.761Z,58.53
2018-08-25T02:22:27.704Z,58.76
2018-08-25T02:23:27.693Z,59.06
2018-08-25T02:24:27.688Z,59.44
2018-08-25T02:25:27.668Z,59.56
2018-08-25T02:26:27.717Z,60.17
2018-08-25T02:27:27.645Z,59.87
2018-08-25T02:28:27.636Z,60.27
2018-08-25T02:29:27.628Z,59.56
2018-08-25T02:30:27.612Z,59.56
2018-08-25T02:31:27.655Z,59.87
2018-08-25T02:32:27.592Z,60.75
2018-08-25T02:33:27.580Z,60.07
2018-08-25T02:34:27.572Z,59.97
2018-08-25T02:35:27.556Z,60.07
2018-08-25T02:36:27.602Z,59.97
2018-08-25T02:37:27.537Z,60.68
2018-08-25T02:38:27.539Z,59.87
2018-08-25T02:39:27.518Z,59.97
2018-08-25T02:40:27.506Z,60.17
2018-08-25T02:41:27.535Z,60.07
2018-08-25T02:42:27.477Z,60.58
2018-08-25T02:43:27.474Z,60.48
2018-08-25T02:44:27.464Z,60.78
2018-08-25T02:45:27.450Z,60.78
2018-08-25T02:46:27.478Z,61.08
2018-08-25T02:47:27.424Z,60.88
2018-08-25T02:48:27.412Z,61.08
2018-08-25T02:49:27.401Z,61.39
2018-08-25T02:50:27.389Z,61.49
2018-08-25T02:51:27.430Z,60.98
2018-08-25T02:52:27.367Z,61.29
2018-08-25T02:53:27.355Z,61.59
2018-08-25T02:54:27.348Z,61.59
2018-08-25T02:55:27.333Z,61.90
2018-08-25T02:56:27.371Z,61.69
2018-08-25T02:57:27.314Z,61.90
2018-08-25T02:58:27.303Z,62.50
2018-08-25T02:59:27.291Z,62.90
2018-08-25T03:00:27.281Z,62.10
2018-08-25T03:01:27.313Z,61.90
2018-08-25T03:02:27.266Z,62.30
2018-08-25T03:03:27.262Z,62.84
2018-08-25T03:04:27.235Z,62.93
2018-08-25T03:05:27.225Z,63.44
2018-08-25T03:06:27.257Z,63.04
2018-08-25T03:07:27.205Z,63.37
2018-08-25T03:08:27.199Z,63.87
2018-08-25T03:09:27.175Z,63.47
2018-08-25T03:10:27.177Z,64.38
2018-08-25T03:11:27.201Z,64.48
2018-08-25T03:12:27.148Z,64.92
2018-08-25T03:13:27.137Z,65.02
2018-08-25T03:14:27.127Z,65.42
2018-08-25T03:15:27.109Z,65.12
2018-08-25T03:16:27.151Z,65.32
2018-08-25T03:17:27.098Z,65.22
2018-08-25T03:18:27.078Z,65.73
2018-08-25T03:19:27.070Z,65.76
2018-08-25T03:20:27.061Z,65.42
2018-08-25T03:21:27.097Z,65.73
2018-08-25T03:22:27.033Z,65.42
2018-08-25T03:23:27.020Z,66.47
2018-08-25T03:24:27.011Z,66.24
2018-08-25T03:25:27.002Z,65.12
2018-08-25T03:26:27.040Z,65.36
2018-08-25T03:27:26.977Z,66.57
2018-08-25T03:28:26.968Z,66.67
2018-08-25T03:29:26.955Z,66.64
2018-08-25T03:30:26.948Z,67.18
2018-08-25T03:31:26.989Z,66.67
2018-08-25T03:32:26.936Z,67.08
2018-08-25T03:33:26.914Z,67.38
2018-08-25T03:34:26.917Z,67.79
2018-08-25T03:35:26.898Z,67.82
2018-08-25T03:36:26.938Z,68.23
2018-08-25T03:37:26.870Z,67.72
2018-08-25T03:38:26.855Z,67.31
2018-08-25T03:39:26.851Z,67.51
2018-08-25T03:40:26.836Z,67.28
2018-08-25T03:41:26.867Z,67.28
2018-08-25T03:42:26.809Z,67.58
2018-08-25T03:43:26.808Z,66.97
2018-08-25T03:44:26.790Z,66.97
2018-08-25T03:45:26.780Z,67.28
2018-08-25T03:46:26.820Z,67.28
2018-08-25T03:47:26.754Z,66.97
2018-08-25T03:48:26.749Z,66.88
2018-08-25T03:49:26.735Z,66.67
2018-08-25T03:50:26.725Z,67.28
2018-08-25T03:51:26.771Z,67.28
2018-08-25T03:52:26.704Z,66.77
2018-08-25T03:53:26.687Z,67.38
2018-08-25T03:54:26.687Z,66.84
2018-08-25T03:55:26.734Z,67.28
2018-08-25T03:56:26.703Z,66.97
2018-08-25T03:57:26.648Z,66.77
2018-08-25T03:58:26.631Z,66.88
2018-08-25T03:59:26.621Z,67.38
2018-08-25T04:00:26.614Z,67.18
2018-08-25T04:01:26.718Z,67.08
2018-08-25T04:02:26.594Z,66.97
2018-08-25T04:03:26.577Z,67.08
2018-08-25T04:04:26.564Z,67.38
2018-08-25T04:05:26.567Z,67.08
2018-08-25T04:06:26.589Z,67.28
2018-08-25T04:07:26.532Z,66.57
2018-08-25T04:08:26.527Z,66.57
2018-08-25T04:09:26.509Z,66.57
2018-08-25T04:10:26.504Z,66.97
2018-08-25T04:11:26.558Z,66.97
2018-08-25T04:12:26.485Z,66.88
2018-08-25T04:13:26.474Z,66.57
2018-08-25T04:14:26.455Z,66.77
2018-08-25T04:15:26.444Z,66.57
2018-08-25T04:16:26.479Z,66.47
2018-08-25T04:17:26.438Z,66.47
2018-08-25T04:18:26.420Z,66.77
2018-08-25T04:19:26.399Z,66.67
2018-08-25T04:20:26.390Z,66.57
2018-08-25T04:21:26.428Z,66.67
2018-08-25T04:22:26.370Z,67.28
2018-08-25T04:23:26.361Z,67.28
2018-08-25T04:24:26.350Z,67.38
2018-08-25T04:25:26.337Z,66.97
2018-08-25T04:26:26.323Z,66.88
2018-08-25T04:27:26.364Z,67.28
2018-08-25T04:28:26.300Z,67.18
2018-08-25T04:29:26.289Z,67.28
2018-08-25T04:30:26.277Z,66.67
2018-08-25T04:31:26.266Z,66.88
2018-08-25T04:32:26.306Z,66.77
2018-08-25T04:33:26.270Z,67.08
2018-08-25T04:34:26.239Z,66.37
2018-08-25T04:35:26.227Z,66.97
2018-08-25T04:36:26.210Z,67.18
2018-08-25T04:37:26.249Z,66.67
2018-08-25T04:38:26.202Z,66.67
2018-08-25T04:39:26.181Z,66.47
2018-08-25T04:40:26.171Z,66.77
2018-08-25T04:41:26.241Z,66.47
2018-08-25T04:42:26.193Z,66.77
2018-08-25T04:43:26.132Z,66.54
2018-08-25T04:44:26.123Z,65.56
2018-08-25T04:45:26.133Z,66.16
2018-08-25T04:46:26.098Z,66.47
2018-08-25T04:47:26.137Z,66.57
2018-08-25T04:48:26.079Z,65.96
2018-08-25T04:49:26.067Z,66.27
2018-08-25T04:50:26.056Z,65.86
2018-08-25T04:51:26.055Z,65.66
2018-08-25T04:52:26.082Z,66.88
2018-08-25T04:53:26.032Z,66.06
2018-08-25T04:54:26.013Z,65.96
2018-08-25T04:55:26.000Z,65.42
2018-08-25T04:56:25.993Z,67.08
2018-08-25T04:57:26.025Z,66.97
2018-08-25T04:58:25.973Z,67.14
2018-08-25T04:59:25.957Z,66.37
2018-08-25T05:00:25.944Z,66.37
2018-08-25T05:01:25.938Z,65.93
2018-08-25T05:02:25.970Z,66.16
2018-08-25T05:03:25.923Z,65.76
2018-08-25T05:04:25.907Z,67.08
2018-08-25T05:05:25.895Z,66.97
2018-08-25T05:06:25.876Z,66.77
2018-08-25T05:07:25.918Z,67.08
2018-08-25T05:08:25.865Z,66.67
2018-08-25T05:09:25.850Z,66.67
2018-08-25T05:10:25.845Z,66.67
2018-08-25T05:11:25.826Z,66.67
2018-08-25T05:12:25.862Z,66.47
2018-08-25T05:13:25.806Z,66.67
2018-08-25T05:14:25.800Z,66.57
2018-08-25T05:15:25.779Z,66.88
2018-08-25T05:16:25.782Z,66.77
2018-08-25T05:17:25.819Z,66.77
2018-08-25T05:18:25.748Z,66.77
2018-08-25T05:19:25.747Z,66.97
2018-08-25T05:20:25.721Z,66.47
2018-08-25T05:21:25.711Z,66.67
2018-08-25T05:22:25.759Z,66.67
2018-08-25T05:23:25.688Z,66.57
2018-08-25T05:24:25.683Z,66.57
2018-08-25T05:25:25.664Z,66.57
2018-08-25T05:26:25.654Z,66.67
2018-08-25T05:27:25.714Z,67.18
2018-08-25T05:28:25.635Z,67.18
2018-08-25T05:29:25.621Z,66.67
2018-08-25T05:30:25.620Z,66.88
2018-08-25T05:31:25.599Z,66.84
2018-08-25T05:32:25.590Z,66.88
2018-08-25T05:33:25.628Z,66.64
2018-08-25T05:34:25.566Z,65.83
2018-08-25T05:35:25.560Z,65.36
2018-08-25T05:36:25.550Z,66.88
2018-08-25T05:37:25.532Z,67.08
2018-08-25T05:38:25.574Z,66.47
2018-08-25T05:39:25.516Z,66.67
2018-08-25T05:40:25.498Z,66.97
2018-08-25T05:41:25.494Z,66.97
2018-08-25T05:42:25.476Z,66.77
2018-08-25T05:43:25.524Z,66.67
2018-08-25T05:44:25.458Z,66.67
2018-08-25T05:45:25.447Z,66.57
2018-08-25T05:46:25.444Z,66.47
2018-08-25T05:47:25.425Z,66.97
2018-08-25T05:48:25.459Z,66.24
2018-08-25T05:49:25.407Z,66.67
2018-08-25T05:50:25.390Z,66.54
2018-08-25T05:51:25.380Z,66.88
2018-08-25T05:52:25.369Z,66.94
2018-08-25T05:53:25.409Z,66.06
2018-08-25T05:54:25.349Z,65.83
2018-08-25T05:55:25.336Z,65.15
2018-08-25T05:56:25.325Z,66.88
2018-08-25T05:57:25.315Z,66.24
2018-08-25T05:58:25.354Z,66.54
2018-08-25T05:59:25.293Z,66.37
2018-08-25T06:00:25.292Z,66.97
2018-08-25T06:01:25.274Z,66.94
2018-08-25T06:02:25.259Z,66.97
2018-08-25T06:03:25.313Z,65.86
2018-08-25T06:04:25.238Z,66.06
2018-08-25T06:05:25.228Z,66.13
2018-08-25T06:06:25.288Z,66.27
2018-08-25T06:07:25.200Z,65.76
2018-08-25T06:08:25.243Z,65.25
2018-08-25T06:09:25.180Z,65.96
2018-08-25T06:10:25.169Z,65.56
2018-08-25T06:11:25.159Z,65.66
2018-08-25T06:12:25.151Z,65.93
2018-08-25T06:13:25.236Z,65.25
2018-08-25T06:14:25.133Z,65.62
2018-08-25T06:15:25.121Z,65.73
2018-08-25T06:16:25.103Z,65.12
2018-08-25T06:17:25.095Z,65.42
2018-08-25T06:18:25.132Z,65.62
2018-08-25T06:19:25.078Z,65.42
2018-08-25T06:20:25.055Z,65.59
2018-08-25T06:21:25.051Z,65.59
2018-08-25T06:22:25.033Z,65.50
2018-08-25T06:23:25.075Z,65.50
2018-08-25T06:24:25.016Z,65.19
2018-08-25T06:25:25.008Z,65.19
2018-08-25T06:26:24.993Z,66.24
2018-08-25T06:27:24.981Z,65.80
2018-08-25T06:28:25.025Z,66.41
2018-08-25T06:29:24.955Z,65.70
2018-08-25T06:30:24.951Z,66.20
2018-08-25T06:31:24.937Z,66.61
2018-08-25T06:32:24.924Z,65.56
2018-08-25T06:33:24.914Z,65.80
2018-08-25T06:34:24.956Z,65.19
2018-08-25T06:35:24.893Z,66.61
2018-08-25T06:36:24.879Z,67.42
2018-08-25T06:37:24.874Z,67.32
2018-08-25T06:38:24.878Z,68.33
2018-08-25T06:39:24.965Z,69.48
2018-08-25T06:40:24.849Z,70.18
2018-08-25T06:41:24.828Z,71.30
2018-08-25T06:42:24.996Z,72.11
2018-08-25T06:43:24.897Z,72.75
2018-08-25T06:44:24.889Z,71.64
2018-08-25T06:45:24.779Z,72.24
2018-08-25T06:46:24.771Z,73.19
2018-08-25T06:47:24.757Z,73.60
2018-08-25T06:48:24.749Z,73.80
2018-08-25T06:49:24.782Z,74.10
2018-08-25T06:50:24.725Z,75.32
2018-08-25T06:51:24.715Z,74.95
2018-08-25T06:52:24.708Z,75.12
2018-08-25T06:53:24.824Z,75.25
2018-08-25T06:54:24.738Z,75.76
2018-08-25T06:55:24.699Z,76.87
2018-08-25T06:56:24.658Z,75.86
2018-08-25T06:57:24.703Z,74.14
2018-08-25T06:58:24.666Z,77.79
2018-08-25T06:59:24.713Z,74.00
2018-08-25T07:00:24.624Z,75.66
2018-08-25T07:01:24.600Z,76.87
2018-08-25T07:02:24.604Z,76.87
2018-08-25T07:03:24.595Z,76.87
2018-08-25T07:04:24.611Z,76.10
2018-08-25T07:05:24.555Z,76.20
2018-08-25T07:06:24.546Z,77.32
2018-08-25T07:07:24.546Z,78.23
2018-08-25T07:08:24.541Z,77.72
2018-08-25T07:09:24.568Z,76.81
2018-08-25T07:10:24.500Z,77.52
2018-08-25T07:11:24.507Z,77.01
2018-08-25T07:12:24.482Z,77.66
2018-08-25T07:13:24.471Z,77.22
2018-08-25T07:14:24.504Z,77.52
2018-08-25T07:15:24.447Z,78.64
2018-08-25T07:16:24.851Z,78.67
2018-08-25T07:17:24.525Z,79.45
2018-08-25T07:18:24.430Z,79.25
2018-08-25T07:19:24.449Z,77.42
2018-08-25T07:20:24.416Z,78.33
2018-08-25T07:21:24.380Z,78.78
2018-08-25T07:22:24.374Z,79.69
2018-08-25T07:23:24.367Z,80.10
2018-08-25T07:24:24.396Z,78.67
2018-08-25T07:25:24.346Z,78.47
2018-08-25T07:26:24.325Z,78.67
2018-08-25T07:27:24.327Z,78.13
2018-08-25T07:28:24.316Z,77.72
2018-08-25T07:29:24.362Z,78.44
2018-08-25T07:30:24.281Z,77.12
2018-08-25T07:31:24.273Z,78.33
2018-08-25T07:32:24.256Z,77.52
2018-08-25T07:33:24.249Z,78.84
2018-08-25T07:34:24.302Z,78.94
2018-08-25T07:35:25.245Z,77.36
2018-08-25T07:36:24.226Z,77.76
2018-08-25T07:37:24.214Z,78.06
2018-08-25T07:38:24.312Z,79.18
2018-08-25T07:39:24.227Z,78.67
2018-08-25T07:40:24.176Z,78.88
2018-08-25T07:41:24.175Z,78.47
2018-08-25T07:42:24.149Z,78.47
2018-08-25T07:43:24.138Z,78.47
2018-08-25T07:44:24.193Z,78.37
2018-08-25T07:45:26.727Z,79.69
2018-08-25T07:46:24.108Z,78.27
2018-08-25T07:47:24.096Z,78.17
2018-08-25T07:48:24.082Z,79.28
2018-08-25T07:49:24.238Z,78.67
2018-08-25T07:50:24.103Z,78.27
2018-08-25T07:51:24.050Z,78.53
2018-08-25T07:52:24.134Z,78.13
2018-08-25T07:53:24.032Z,78.44
2018-08-25T07:54:24.070Z,77.83
2018-08-25T07:55:24.003Z,78.23
2018-08-25T07:56:23.989Z,78.44
2018-08-25T07:57:23.999Z,78.74
2018-08-25T07:58:24.017Z,79.35
2018-08-25T07:59:24.018Z,79.99
2018-08-25T08:00:23.951Z,80.10
2018-08-25T08:01:23.936Z,80.30
2018-08-25T08:02:23.922Z,80.71
2018-08-25T08:03:23.931Z,81.01
2018-08-25T08:04:23.946Z,80.60
2018-08-25T08:05:23.929Z,81.11
2018-08-25T08:06:23.904Z,81.11
2018-08-25T08:07:23.871Z,81.35
2018-08-25T08:08:23.864Z,81.72
2018-08-25T08:09:23.896Z,81.41
2018-08-25T08:10:23.847Z,82.53
2018-08-25T08:11:23.824Z,81.72
2018-08-25T08:12:23.901Z,78.78
2018-08-25T08:13:23.800Z,80.16
2018-08-25T08:14:23.836Z,79.28
2018-08-25T08:15:23.809Z,80.50
2018-08-25T08:16:23.766Z,80.30
2018-08-25T08:17:23.761Z,80.50
2018-08-25T08:18:23.750Z,80.40
2018-08-25T08:19:23.787Z,80.10
2018-08-25T08:20:23.733Z,79.99
2018-08-25T08:21:23.712Z,78.67
2018-08-25T08:22:23.707Z,80.10
2018-08-25T08:23:23.690Z,78.67
2018-08-25T08:24:23.740Z,79.04
2018-08-25T08:25:23.675Z,79.49
2018-08-25T08:26:23.655Z,79.65
2018-08-25T08:27:23.644Z,78.94
2018-08-25T08:28:23.643Z,79.25
2018-08-25T08:29:23.624Z,80.16
2018-08-25T08:30:23.673Z,80.16
2018-08-25T08:31:23.644Z,81.78
2018-08-25T08:32:23.631Z,81.07
2018-08-25T08:33:24.270Z,79.35
2018-08-25T08:34:23.569Z,80.57
2018-08-25T08:35:26.688Z,81.38
2018-08-25T08:36:24.655Z,80.71
2018-08-25T08:37:24.282Z,79.28
2018-08-25T08:38:24.261Z,80.46
2018-08-25T08:39:23.568Z,79.49
2018-08-25T08:40:28.419Z,79.38
2018-08-25T08:41:23.497Z,79.90
2018-08-25T08:42:23.563Z,79.18
2018-08-25T08:43:23.470Z,78.47
2018-08-25T08:44:23.459Z,79.28
2018-08-25T08:45:23.517Z,79.90
2018-08-25T08:46:23.432Z,80.40
2018-08-25T08:47:23.463Z,78.67
2018-08-25T08:48:23.411Z,79.25
2018-08-25T08:49:23.399Z,78.94
2018-08-25T08:50:23.514Z,78.74
2018-08-25T08:51:23.392Z,78.13
2018-08-25T08:52:23.372Z,78.74
2018-08-25T08:53:23.379Z,78.74
2018-08-25T08:54:23.343Z,78.94
2018-08-25T08:55:23.384Z,79.35
2018-08-25T08:56:23.337Z,79.14
2018-08-25T08:57:23.319Z,79.75
2018-08-25T08:58:23.354Z,78.94
2018-08-25T08:59:23.300Z,79.25
2018-08-25T09:00:23.374Z,79.96
2018-08-25T09:01:23.272Z,79.31
2018-08-25T09:02:23.264Z,79.85
2018-08-25T09:03:23.294Z,79.11
2018-08-25T09:04:23.897Z,79.31
2018-08-25T09:05:23.275Z,78.40
2018-08-25T09:06:23.243Z,78.19
2018-08-25T09:07:23.200Z,78.19
2018-08-25T09:08:23.196Z,78.40
2018-08-25T09:09:23.187Z,78.60
2018-08-25T09:10:23.233Z,78.30
2018-08-25T09:11:23.239Z,79.21
2018-08-25T09:12:23.145Z,78.60
2018-08-25T09:13:23.149Z,78.09
2018-08-25T09:14:23.152Z,78.70
2018-08-25T09:15:23.164Z,78.09
2018-08-25T09:16:23.104Z,77.79
2018-08-25T09:17:23.173Z,78.09
2018-08-25T09:18:23.081Z,78.50
2018-08-25T09:19:23.098Z,78.97
2018-08-25T09:20:23.100Z,78.46
2018-08-25T09:21:23.046Z,78.16
2018-08-25T09:22:23.037Z,78.53
2018-08-25T09:23:23.022Z,77.65
2018-08-25T09:24:23.014Z,76.94
2018-08-25T09:25:23.061Z,76.74
2018-08-25T09:26:22.987Z,77.04
2018-08-25T09:27:23.063Z,77.34
2018-08-25T09:28:22.976Z,77.14
2018-08-25T09:29:22.954Z,77.25
2018-08-25T09:30:22.992Z,76.94
2018-08-25T09:31:22.946Z,77.14
2018-08-25T09:32:22.922Z,77.04
2018-08-25T09:33:22.912Z,77.04
2018-08-25T09:34:22.903Z,78.36
2018-08-25T09:35:22.939Z,77.25
2018-08-25T09:36:22.988Z,77.65
2018-08-25T09:37:22.900Z,76.94
2018-08-25T09:38:22.856Z,77.14
2018-08-25T09:39:22.846Z,76.54
2018-08-25T09:40:22.916Z,77.65
2018-08-25T09:41:22.821Z,76.70
2018-08-25T09:42:22.811Z,78.33
2018-08-25T09:43:22.798Z,77.11
2018-08-25T09:44:22.790Z,77.31
2018-08-25T09:45:22.835Z,77.51
2018-08-25T09:46:22.772Z,77.01
2018-08-25T09:47:22.758Z,76.80
2018-08-25T09:48:22.748Z,76.29
2018-08-25T09:49:22.814Z,76.60
2018-08-25T09:50:23.314Z,76.80
2018-08-25T09:51:22.828Z,76.90
2018-08-25T09:52:22.754Z,76.90
2018-08-25T09:53:22.863Z,76.20
2018-08-25T09:54:22.760Z,76.09
2018-08-25T09:55:22.750Z,76.60
2018-08-25T09:56:22.654Z,76.60
2018-08-25T09:57:22.644Z,76.90
2018-08-25T09:58:22.640Z,77.61
2018-08-25T09:59:22.625Z,76.20
2018-08-25T10:00:22.657Z,76.70
2018-08-25T10:01:22.601Z,76.90
2018-08-25T10:02:22.591Z,77.01
2018-08-25T10:03:22.584Z,76.80
2018-08-25T10:04:22.574Z,77.01
2018-08-25T10:05:22.699Z,77.01
2018-08-25T10:06:22.673Z,76.90
2018-08-25T10:07:22.531Z,76.20
2018-08-25T10:08:23.708Z,76.90
2018-08-25T10:09:22.510Z,76.90
2018-08-25T10:10:22.497Z,76.70
2018-08-25T10:11:22.541Z,76.90
2018-08-25T10:12:22.481Z,77.01
2018-08-25T10:13:22.464Z,76.90
2018-08-25T10:14:22.460Z,76.84
2018-08-25T10:15:22.464Z,77.86
2018-08-25T10:16:22.492Z,78.53
2018-08-25T10:17:22.473Z,77.82
2018-08-25T10:18:22.412Z,76.70
2018-08-25T10:19:22.400Z,77.34
2018-08-25T10:20:22.395Z,77.95
2018-08-25T10:21:22.434Z,78.06
2018-08-25T10:22:22.370Z,77.86
2018-08-25T10:23:22.386Z,78.16
2018-08-25T10:24:22.339Z,78.16
2018-08-25T10:25:22.331Z,79.03
2018-08-25T10:26:22.372Z,79.54
2018-08-25T10:27:22.308Z,80.59
2018-08-25T10:28:22.302Z,80.99
2018-08-25T10:29:22.302Z,82.42
2018-08-25T10:30:22.279Z,81.54
2018-08-25T10:31:22.312Z,82.66
2018-08-25T10:32:22.254Z,82.35
2018-08-25T10:33:22.247Z,84.01
2018-08-25T10:34:22.236Z,83.67
2018-08-25T10:35:22.230Z,83.06
2018-08-25T10:36:22.259Z,83.98
2018-08-25T10:37:22.209Z,85.03
2018-08-25T10:38:22.200Z,85.53
2018-08-25T10:39:22.181Z,84.83
2018-08-25T10:40:22.165Z,85.33
2018-08-25T10:41:22.218Z,84.22
2018-08-25T10:42:22.152Z,84.08
2018-08-25T10:43:22.137Z,85.39
2018-08-25T10:44:22.119Z,85.50
2018-08-25T10:45:22.114Z,85.05
2018-08-25T10:46:22.164Z,84.55
2018-08-25T10:47:22.091Z,84.64
2018-08-25T10:48:22.093Z,82.01
2018-08-25T10:49:22.066Z,80.59
2018-08-25T10:50:22.055Z,81.81
2018-08-25T10:51:22.090Z,82.72
2018-08-25T10:52:22.035Z,81.50
2018-08-25T10:53:22.037Z,81.60
2018-08-25T10:54:22.008Z,82.78
2018-08-25T10:55:22.019Z,82.17
2018-08-25T10:56:22.031Z,81.06
2018-08-25T10:57:21.982Z,81.26
2018-08-25T10:58:22.268Z,80.96
2018-08-25T10:59:22.010Z,80.35
2018-08-25T11:00:22.050Z,80.31
2018-08-25T11:01:21.976Z,80.41
2018-08-25T11:02:21.922Z,79.80
2018-08-25T11:03:21.911Z,78.59
2018-08-25T11:04:21.904Z,80.47
2018-08-25T11:05:21.883Z,80.88
2018-08-25T11:06:21.945Z,79.87
2018-08-25T11:07:21.865Z,79.43
2018-08-25T11:08:21.852Z,78.72
2018-08-25T11:09:21.844Z,79.43
2018-08-25T11:10:21.828Z,81.35
2018-08-25T11:11:21.881Z,78.52
2018-08-25T11:12:21.805Z,78.01
2018-08-25T11:13:21.799Z,78.17
2018-08-25T11:14:21.792Z,78.17
2018-08-25T11:15:21.782Z,76.23
2018-08-25T11:16:21.837Z,77.00
2018-08-25T11:17:21.756Z,77.20
2018-08-25T11:18:21.740Z,77.50
2018-08-25T11:19:21.739Z,76.09
2018-08-25T11:20:21.726Z,75.99
2018-08-25T11:21:21.754Z,75.95
2018-08-25T11:22:21.712Z,74.63
2018-08-25T11:23:21.684Z,74.84
2018-08-25T11:24:21.679Z,74.74
2018-08-25T11:25:21.667Z,75.04
2018-08-25T11:26:21.699Z,75.55
2018-08-25T11:27:21.651Z,75.24
2018-08-25T11:28:21.630Z,73.32
2018-08-25T11:29:21.659Z,73.93
2018-08-25T11:30:21.612Z,74.23
2018-08-25T11:31:21.652Z,75.04
2018-08-25T11:32:21.595Z,74.70
2018-08-25T11:33:21.580Z,74.60
2018-08-25T11:34:21.573Z,75.01
2018-08-25T11:35:21.554Z,75.17
2018-08-25T11:36:21.592Z,72.34
2018-08-25T11:37:21.668Z,72.44
2018-08-25T11:38:21.519Z,70.89
2018-08-25T11:39:21.518Z,70.66
2018-08-25T11:40:21.497Z,71.20
2018-08-25T11:41:21.592Z,69.24
2018-08-25T11:42:21.491Z,68.24
2018-08-25T11:43:21.469Z,68.77
2018-08-25T11:44:21.455Z,68.77
2018-08-25T11:45:21.453Z,68.98
2018-08-25T11:46:21.475Z,68.87
2018-08-25T11:47:21.424Z,68.30
2018-08-25T11:48:21.427Z,67.13
2018-08-25T11:49:21.402Z,67.50
2018-08-25T11:50:21.389Z,65.68
2018-08-25T11:51:21.426Z,66.89
2018-08-25T11:52:21.365Z,65.18
2018-08-25T11:53:21.366Z,65.55
2018-08-25T11:54:21.372Z,65.35
2018-08-25T11:55:21.333Z,65.35
2018-08-25T11:56:21.329Z,65.55
2018-08-25T11:57:21.377Z,63.64
2018-08-25T11:58:21.303Z,64.72
2018-08-25T11:59:21.309Z,63.27
2018-08-25T12:00:21.297Z,64.48
2018-08-25T12:01:21.272Z,63.07
2018-08-25T12:02:21.421Z,63.50
2018-08-25T12:03:21.255Z,63.81
2018-08-25T12:04:21.241Z,64.44
2018-08-25T12:05:21.222Z,64.84
2018-08-25T12:06:21.215Z,65.18
2018-08-25T12:07:21.247Z,64.84
2018-08-25T12:08:21.201Z,66.89
2018-08-25T12:09:21.220Z,65.45
2018-08-25T12:10:21.179Z,66.86
2018-08-25T12:11:21.168Z,66.46
2018-08-25T12:12:21.192Z,66.36
2018-08-25T12:13:21.132Z,66.53
2018-08-25T12:14:21.129Z,65.29
2018-08-25T12:15:21.108Z,64.58
2018-08-25T12:16:21.115Z,65.09
2018-08-25T12:17:21.136Z,64.25
2018-08-25T12:18:21.075Z,63.92
2018-08-25T12:19:21.065Z,63.14
2018-08-25T12:20:21.055Z,63.42
2018-08-25T12:21:21.040Z,60.28
2018-08-25T12:22:21.086Z,59.42
2018-08-25T12:23:21.029Z,57.76
2018-08-25T12:24:21.010Z,56.93
2018-08-25T12:25:21.003Z,55.57
2018-08-25T12:26:20.997Z,54.05
2018-08-25T12:27:21.026Z,54.27
2018-08-25T12:28:20.979Z,53.55
2018-08-25T12:29:20.952Z,54.35
2018-08-25T12:30:20.944Z,55.12
2018-08-25T12:31:20.936Z,53.97
2018-08-25T12:32:20.971Z,54.49
2018-08-25T12:33:20.920Z,53.79
2018-08-25T12:34:20.916Z,54.05
2018-08-25T12:35:20.887Z,55.98
2018-08-25T12:36:20.879Z,56.90
2018-08-25T12:37:20.914Z,56.57
2018-08-25T12:38:20.858Z,54.55
2018-08-25T12:39:20.851Z,54.24
2018-08-25T12:40:20.835Z,53.49
2018-08-25T12:41:20.822Z,53.09
2018-08-25T12:42:20.874Z,53.24
2018-08-25T12:43:20.829Z,52.19
2018-08-25T12:44:20.794Z,50.74
2018-08-25T12:45:20.792Z,49.05
2018-08-25T12:46:20.781Z,49.05
2018-08-25T12:47:20.820Z,49.57
2018-08-25T12:48:20.755Z,50.60
2018-08-25T12:49:20.740Z,50.99
2018-08-25T12:50:20.728Z,52.57
2018-08-25T12:51:20.783Z,54.37
2018-08-25T12:52:20.769Z,56.96
2018-08-25T12:53:20.705Z,58.62
2018-08-25T12:54:20.693Z,59.75
2018-08-25T12:55:20.689Z,59.58
2018-08-25T12:56:20.672Z,59.58
2018-08-25T12:57:20.696Z,60.24
2018-08-25T12:58:20.634Z,60.33
2018-08-25T12:59:20.646Z,60.89
2018-08-25T13:00:20.633Z,61.00
2018-08-25T13:01:20.602Z,61.30
2018-08-25T13:02:20.669Z,60.80
2018-08-25T13:03:20.583Z,60.69
2018-08-25T13:04:20.573Z,60.60
2018-08-25T13:05:20.559Z,60.89
2018-08-25T13:06:20.543Z,61.40
2018-08-25T13:07:20.643Z,62.01
2018-08-25T13:08:20.528Z,62.51
2018-08-25T13:09:20.513Z,62.44
2018-08-25T13:10:20.512Z,62.74
2018-08-25T13:11:20.490Z,63.11
2018-08-25T13:12:20.534Z,62.94
2018-08-25T13:13:20.662Z,62.94
2018-08-25T13:14:20.487Z,62.94
2018-08-25T13:15:20.450Z,63.11
2018-08-25T13:16:20.447Z,63.01
2018-08-25T13:17:20.471Z,62.41
2018-08-25T13:18:20.443Z,61.17
2018-08-25T13:19:20.414Z,61.60
2018-08-25T13:20:20.416Z,59.69
2018-08-25T13:21:20.384Z,58.18
2018-08-25T13:22:20.448Z,56.14
2018-08-25T13:23:20.420Z,56.54
2018-08-25T13:24:20.358Z,54.00
2018-08-25T13:25:20.355Z,52.59
2018-08-25T13:26:20.331Z,49.55
2018-08-25T13:27:20.318Z,48.44
2018-08-25T13:28:20.349Z,46.51
2018-08-25T13:29:20.297Z,46.51
2018-08-25T13:30:20.298Z,46.22
2018-08-25T13:31:20.284Z,43.28
2018-08-25T13:32:20.260Z,44.00
2018-08-25T13:33:20.312Z,44.79
2018-08-25T13:34:20.236Z,45.26
2018-08-25T13:35:20.230Z,46.27
2018-08-25T13:36:20.388Z,46.89
2018-08-25T13:37:20.246Z,47.50
2018-08-25T13:38:20.262Z,48.43
2018-08-25T13:39:20.185Z,47.60
2018-08-25T13:40:20.177Z,48.40
2018-08-25T13:41:20.166Z,48.50
2018-08-25T13:42:20.152Z,48.00
2018-08-25T13:43:20.186Z,48.40
2018-08-25T13:44:20.201Z,48.20
2018-08-25T13:45:20.122Z,47.77
2018-08-25T13:46:20.104Z,46.97
2018-08-25T13:47:20.103Z,45.77
2018-08-25T13:48:20.128Z,45.06
2018-08-25T13:49:20.074Z,45.37
2018-08-25T13:50:20.063Z,45.25
2018-08-25T13:51:20.051Z,44.74
2018-08-25T13:52:20.037Z,42.44